createdAt,value
2022-12-18T00:01:15.878Z,34.30
2022-12-18T00:03:43.853Z,37.33
2022-12-18T00:06:12.590Z,37.50
2022-12-18T00:08:43.421Z,36.63
2022-12-18T00:11:13.074Z,32.90
2022-12-18T00:13:40.952Z,36.90
2022-12-18T00:16:10.457Z,38.00
2022-12-18T00:18:38.307Z,37.72
2022-12-18T00:21:07.032Z,31.70
2022-12-18T00:23:34.951Z,33.85
2022-12-18T00:26:02.889Z,39.60
2022-12-18T00:28:31.822Z,46.03
2022-12-18T00:31:06.948Z,39.33
2022-12-18T00:33:34.654Z,34.78
2022-12-18T00:36:12.256Z,39.85
2022-12-18T00:38:40.132Z,36.33
2022-12-18T00:41:08.604Z,37.72
2022-12-18T00:43:37.151Z,39.40
2022-12-18T00:46:05.130Z,33.60
2022-12-18T00:48:33.287Z,33.60
2022-12-18T00:51:00.648Z,37.90
2022-12-18T00:53:27.981Z,35.95
2022-12-18T00:55:57.041Z,30.55
2022-12-18T00:58:28.573Z,35.50
2022-12-18T01:00:58.160Z,36.30
2022-12-18T01:03:25.680Z,38.45
2022-12-18T01:05:52.935Z,36.67
2022-12-18T01:08:20.581Z,36.67
2022-12-18T01:10:47.874Z,35.58
2022-12-18T01:13:15.146Z,33.15
2022-12-18T01:15:42.674Z,34.78
2022-12-18T01:18:11.693Z,30.48
2022-12-18T01:20:39.789Z,28.75
2022-12-18T01:23:07.129Z,35.58
2022-12-18T01:25:35.097Z,32.35
2022-12-18T01:28:02.862Z,35.38
2022-12-18T01:30:30.450Z,35.17
2022-12-18T01:32:57.735Z,31.77
2022-12-18T01:35:25.078Z,32.30
2022-12-18T01:37:57.946Z,36.55
2022-12-18T01:40:25.239Z,33.90
2022-12-18T01:42:56.172Z,35.03
2022-12-18T01:45:24.887Z,35.00
2022-12-18T01:47:56.830Z,33.42
2022-12-18T01:50:27.025Z,33.40
2022-12-18T01:52:57.110Z,32.33
2022-12-18T01:57:54.352Z,28.63
2022-12-18T02:00:22.414Z,34.20
2022-12-18T02:02:51.498Z,31.48
2022-12-18T02:05:25.755Z,38.27
2022-12-18T02:08:10.157Z,33.00
2022-12-18T02:10:57.926Z,34.70
2022-12-18T02:13:27.416Z,25.67
2022-12-18T02:15:57.621Z,28.15
2022-12-18T02:18:32.175Z,29.38
2022-12-18T02:21:02.952Z,31.33
2022-12-18T02:23:36.814Z,30.73
2022-12-18T02:26:22.144Z,34.22
2022-12-18T02:29:03.976Z,30.10
2022-12-18T02:31:33.487Z,30.80
2022-12-18T02:34:04.346Z,28.73
2022-12-18T02:36:37.075Z,30.48
2022-12-18T02:39:05.077Z,29.60
2022-12-18T02:41:32.827Z,31.75
2022-12-18T02:44:02.624Z,28.85
2022-12-18T02:46:41.384Z,28.05
2022-12-18T02:49:31.573Z,29.13
2022-12-18T02:52:12.563Z,31.33
2022-12-18T02:54:58.801Z,28.55
2022-12-18T02:57:52.620Z,27.42
2022-12-18T03:00:35.765Z,29.23
2022-12-18T03:03:16.110Z,25.75
2022-12-18T03:05:52.694Z,30.40
2022-12-18T03:08:23.002Z,28.65
2022-12-18T03:11:00.957Z,30.60
2022-12-18T03:13:31.916Z,29.15
2022-12-18T03:16:00.852Z,31.23
2022-12-18T03:18:44.430Z,28.30
2022-12-18T03:21:12.735Z,32.20
2022-12-18T03:26:12.233Z,31.48
2022-12-18T03:28:47.607Z,33.95
2022-12-18T03:31:16.270Z,31.33
2022-12-18T03:33:54.138Z,34.30
2022-12-18T03:36:31.535Z,29.58
2022-12-18T03:38:58.927Z,32.35
2022-12-18T03:41:49.307Z,32.83
2022-12-18T03:44:37.931Z,33.40
2022-12-18T03:47:11.419Z,36.80
2022-12-18T03:49:51.071Z,34.00
2022-12-18T03:52:27.454Z,32.53
2022-12-18T03:54:56.709Z,34.95
2022-12-18T03:57:26.109Z,30.40
2022-12-18T04:00:00.949Z,33.03
2022-12-18T04:02:43.558Z,30.63
2022-12-18T04:05:12.569Z,34.38
2022-12-18T04:07:42.822Z,31.08
2022-12-18T04:10:12.478Z,31.05
2022-12-18T04:12:40.058Z,32.65
2022-12-18T04:15:11.178Z,30.90
2022-12-18T04:17:38.949Z,29.02
2022-12-18T04:20:07.157Z,32.10
2022-12-18T04:22:38.291Z,33.40
2022-12-18T04:25:06.004Z,31.02
2022-12-18T04:27:38.681Z,34.30
2022-12-18T04:30:06.992Z,29.80
2022-12-18T04:32:36.596Z,31.05
2022-12-18T04:35:05.257Z,34.92
2022-12-18T04:40:01.038Z,31.20
2022-12-18T04:42:38.057Z,27.00
2022-12-18T04:45:06.160Z,28.00
2022-12-18T04:47:33.635Z,29.58
2022-12-18T04:50:00.960Z,29.58
2022-12-18T04:52:28.248Z,29.40
2022-12-18T04:54:55.542Z,28.52
2022-12-18T04:57:22.854Z,30.15
2022-12-18T04:59:50.503Z,30.05
2022-12-18T05:02:18.063Z,30.13
2022-12-18T05:04:45.370Z,31.70
2022-12-18T05:07:12.670Z,27.92
2022-12-18T05:09:40.070Z,30.00
2022-12-18T05:12:07.415Z,30.70
2022-12-18T05:14:35.177Z,27.75
2022-12-18T05:17:02.720Z,30.92
2022-12-18T05:19:29.955Z,29.70
2022-12-18T05:21:57.287Z,29.73
2022-12-18T05:24:24.715Z,27.70
2022-12-18T05:26:52.059Z,30.90
2022-12-18T05:29:19.456Z,29.58
2022-12-18T05:31:46.822Z,32.00
2022-12-18T05:34:14.443Z,32.95
2022-12-18T05:36:42.272Z,29.60
2022-12-18T05:39:10.282Z,26.85
2022-12-18T05:41:37.707Z,26.63
2022-12-18T05:44:05.121Z,27.58
2022-12-18T05:46:33.382Z,29.17
2022-12-18T05:49:02.167Z,27.67
2022-12-18T05:51:32.487Z,28.47
2022-12-18T05:53:59.888Z,27.63
2022-12-18T05:56:27.160Z,27.00
2022-12-18T05:58:55.037Z,29.58
2022-12-18T06:01:24.142Z,28.98
2022-12-18T06:03:51.708Z,30.40
2022-12-18T06:06:21.113Z,31.38
2022-12-18T06:08:52.881Z,30.77
2022-12-18T06:11:24.482Z,31.05
2022-12-18T06:13:58.556Z,29.73
2022-12-18T06:16:26.759Z,30.48
2022-12-18T06:18:54.253Z,30.40
2022-12-18T06:21:21.549Z,32.22
2022-12-18T06:23:48.832Z,31.55
2022-12-18T06:26:16.191Z,30.30
2022-12-18T06:28:43.771Z,29.73
2022-12-18T06:31:13.737Z,31.60
2022-12-18T06:33:42.206Z,33.75
2022-12-18T06:36:11.307Z,30.52
2022-12-18T06:38:40.197Z,27.60
2022-12-18T06:41:11.645Z,26.15
2022-12-18T06:43:40.476Z,27.50
2022-12-18T06:46:08.048Z,29.83
2022-12-18T06:48:35.765Z,30.55
2022-12-18T06:51:05.927Z,31.02
2022-12-18T06:53:33.829Z,27.27
2022-12-18T06:56:09.421Z,28.25
2022-12-18T06:58:37.794Z,28.23
2022-12-18T07:01:06.974Z,26.95
2022-12-18T07:03:34.806Z,20.92
2022-12-18T07:06:02.271Z,24.70
2022-12-18T07:08:30.776Z,27.48
2022-12-18T07:10:58.245Z,24.15
2022-12-18T07:13:25.844Z,24.88
2022-12-18T07:15:53.487Z,24.23
2022-12-18T07:18:20.899Z,23.25
2022-12-18T07:20:48.250Z,23.70
2022-12-18T07:23:16.367Z,24.25
2022-12-18T07:25:43.824Z,24.20
2022-12-18T07:28:17.052Z,23.40
2022-12-18T07:30:47.372Z,21.70
2022-12-18T07:33:15.001Z,22.67
2022-12-18T07:35:42.412Z,22.58
2022-12-18T07:38:09.762Z,22.38
2022-12-18T07:40:37.302Z,21.73
2022-12-18T07:43:04.864Z,20.42
2022-12-18T07:45:32.409Z,21.80
2022-12-18T07:47:59.775Z,24.27
2022-12-18T07:50:27.199Z,21.00
2022-12-18T07:52:54.601Z,23.65
2022-12-18T07:55:22.036Z,22.02
2022-12-18T07:57:51.857Z,20.75
2022-12-18T08:00:21.404Z,22.75
2022-12-18T08:02:49.021Z,21.27
2022-12-18T08:05:16.562Z,20.15
2022-12-18T08:07:43.991Z,21.30
2022-12-18T08:10:11.494Z,22.00
2022-12-18T08:12:38.769Z,20.02
2022-12-18T08:15:06.332Z,20.98
2022-12-18T08:17:36.496Z,18.85
2022-12-18T08:20:03.921Z,22.05
2022-12-18T08:22:31.633Z,18.58
2022-12-18T08:24:58.992Z,19.55
2022-12-18T08:27:30.256Z,21.20
2022-12-18T08:29:58.393Z,20.83
2022-12-18T08:32:26.489Z,22.10
2022-12-18T08:34:54.104Z,21.67
2022-12-18T08:37:21.471Z,19.52
2022-12-18T08:39:48.903Z,18.65
2022-12-18T08:42:34.854Z,19.90
2022-12-18T08:45:03.503Z,20.48
2022-12-18T08:47:30.808Z,16.70
2022-12-18T08:49:58.192Z,20.90
2022-12-18T08:52:25.587Z,20.50
2022-12-18T08:54:54.980Z,20.65
2022-12-18T08:57:22.425Z,21.10
2022-12-18T08:59:49.710Z,23.02
2022-12-18T09:02:17.266Z,20.40
2022-12-18T09:04:46.798Z,21.17
2022-12-18T09:07:14.354Z,23.45
2022-12-18T09:09:41.790Z,21.98
2022-12-18T09:12:09.142Z,23.85
2022-12-18T09:14:37.332Z,20.70
2022-12-18T09:17:04.672Z,20.02
2022-12-18T09:19:32.077Z,21.45
2022-12-18T09:21:59.520Z,22.05
2022-12-18T09:24:26.870Z,19.00
2022-12-18T09:26:58.108Z,20.20
2022-12-18T09:29:25.649Z,19.83
2022-12-18T09:31:55.540Z,20.02
2022-12-18T09:34:22.936Z,17.40
2022-12-18T09:36:50.291Z,20.02
2022-12-18T09:39:17.999Z,19.20
2022-12-18T09:41:51.072Z,18.20
2022-12-18T09:44:29.208Z,19.45
2022-12-18T09:47:01.563Z,20.17
2022-12-18T09:49:31.112Z,20.05
2022-12-18T09:52:13.495Z,18.10
2022-12-18T09:54:42.143Z,18.10
2022-12-18T09:57:14.831Z,20.70
2022-12-18T09:59:43.284Z,17.40
2022-12-18T10:02:24.674Z,18.48
2022-12-18T10:04:58.254Z,18.67
2022-12-18T10:07:35.249Z,16.90
2022-12-18T10:10:25.701Z,19.05
2022-12-18T10:13:05.052Z,15.40
2022-12-18T10:15:41.889Z,16.13
2022-12-18T10:18:22.204Z,18.75
2022-12-18T10:20:51.495Z,17.13
2022-12-18T10:23:37.747Z,17.98
2022-12-18T10:26:06.725Z,20.40
2022-12-18T10:28:35.183Z,16.88
2022-12-18T10:31:02.791Z,18.80
2022-12-18T10:33:31.197Z,20.23
2022-12-18T10:36:00.504Z,17.73
2022-12-18T10:38:31.497Z,18.08
2022-12-18T10:41:07.311Z,20.75
2022-12-18T10:43:36.392Z,16.85
2022-12-18T10:46:06.975Z,19.35
2022-12-18T10:48:54.728Z,17.52
2022-12-18T10:51:35.578Z,16.08
2022-12-18T10:54:04.396Z,19.08
2022-12-18T10:56:37.455Z,16.08
2022-12-18T10:59:11.980Z,16.73
2022-12-18T11:01:48.624Z,18.17
2022-12-18T11:04:25.344Z,14.73
2022-12-18T11:06:56.053Z,16.42
2022-12-18T11:09:33.253Z,16.55
2022-12-18T11:12:02.212Z,17.73
2022-12-18T11:14:47.031Z,15.85
2022-12-18T11:17:27.192Z,17.40
2022-12-18T11:22:32.706Z,17.52
2022-12-18T11:27:58.583Z,15.50
2022-12-18T11:30:30.629Z,15.63
2022-12-18T11:33:01.203Z,17.33
2022-12-18T11:35:39.929Z,15.43
2022-12-18T11:38:27.588Z,18.85
2022-12-18T11:41:00.783Z,26.58
2022-12-18T11:43:30.498Z,17.00
2022-12-18T11:46:19.977Z,17.35
2022-12-18T11:51:24.977Z,18.70
2022-12-18T11:53:54.765Z,20.38
2022-12-18T11:56:32.978Z,14.73
2022-12-18T11:59:08.336Z,15.55
2022-12-18T12:01:43.678Z,16.42
2022-12-18T12:04:20.798Z,17.80
2022-12-18T12:07:07.027Z,18.55
2022-12-18T12:09:58.228Z,18.65
2022-12-18T12:12:49.522Z,16.98
2022-12-18T12:15:49.458Z,17.52
2022-12-18T12:18:22.991Z,17.58
2022-12-18T12:20:59.148Z,17.20
2022-12-18T12:23:39.996Z,17.90
2022-12-18T12:26:12.673Z,20.35
2022-12-18T12:28:57.049Z,16.75
2022-12-18T12:31:44.169Z,17.60
2022-12-18T12:34:13.732Z,17.35
2022-12-18T12:37:13.925Z,17.35
2022-12-18T12:39:42.677Z,19.95
2022-12-18T12:42:35.782Z,18.65
2022-12-18T12:45:05.589Z,22.48
2022-12-18T12:47:35.588Z,22.30
2022-12-18T12:52:35.444Z,20.33
2022-12-18T12:55:04.355Z,16.20
2022-12-18T12:57:31.761Z,13.23
2022-12-18T13:00:04.799Z,15.90
2022-12-18T13:02:39.390Z,17.08
2022-12-18T13:05:26.119Z,17.92
2022-12-18T13:08:14.208Z,16.45
2022-12-18T13:10:42.350Z,17.67
2022-12-18T13:13:11.140Z,17.52
2022-12-18T13:15:40.041Z,15.82
2022-12-18T13:18:13.301Z,16.75
2022-12-18T13:20:53.082Z,16.90
2022-12-18T13:23:28.111Z,15.90
2022-12-18T13:25:55.911Z,16.58
2022-12-18T13:28:35.554Z,16.60
2022-12-18T13:31:03.581Z,16.63
2022-12-18T13:33:30.913Z,18.73
2022-12-18T13:36:17.140Z,18.08
2022-12-18T13:38:45.784Z,17.33
2022-12-18T13:41:16.438Z,18.63
2022-12-18T13:43:52.068Z,16.88
2022-12-18T13:46:26.145Z,16.63
2022-12-18T13:49:05.492Z,17.60
2022-12-18T13:51:34.740Z,18.52
2022-12-18T13:54:04.693Z,17.58
2022-12-18T13:56:33.543Z,15.48
2022-12-18T13:59:22.071Z,14.30
2022-12-18T14:01:54.182Z,17.10
2022-12-18T14:04:32.462Z,15.57
2022-12-18T14:07:09.550Z,17.90
2022-12-18T14:09:38.911Z,16.15
2022-12-18T14:12:27.039Z,16.63
2022-12-18T14:14:55.486Z,16.35
2022-12-18T14:17:24.512Z,18.40
2022-12-18T14:19:52.733Z,21.35
2022-12-18T14:22:21.568Z,16.13
2022-12-18T14:24:49.461Z,17.23
2022-12-18T14:27:22.818Z,24.35
2022-12-18T14:29:50.126Z,27.02
2022-12-18T14:32:22.309Z,21.25
2022-12-18T14:34:51.297Z,18.33
2022-12-18T14:37:22.051Z,16.05
2022-12-18T14:39:58.717Z,17.02
2022-12-18T14:42:29.109Z,18.13
2022-12-18T14:45:15.536Z,19.50
2022-12-18T14:47:45.114Z,16.17
2022-12-18T14:50:15.941Z,17.35
2022-12-18T14:52:43.454Z,17.73
2022-12-18T14:55:18.404Z,18.13
2022-12-18T14:57:52.556Z,17.98
2022-12-18T15:00:21.267Z,17.58
2022-12-18T15:02:50.151Z,13.90
2022-12-18T15:05:22.283Z,16.35
2022-12-18T15:07:54.650Z,18.90
2022-12-18T15:10:24.986Z,21.15
2022-12-18T15:13:07.812Z,18.98
2022-12-18T15:15:35.294Z,16.10
2022-12-18T15:18:03.572Z,16.08
2022-12-18T15:20:35.126Z,18.25
2022-12-18T15:23:02.490Z,17.42
2022-12-18T15:25:37.592Z,17.83
2022-12-18T15:28:05.734Z,15.63
2022-12-18T15:30:33.196Z,17.67
2022-12-18T15:33:41.809Z,19.92
2022-12-18T15:36:16.348Z,15.80
2022-12-18T15:38:54.686Z,17.23
2022-12-18T15:41:27.981Z,15.82
2022-12-18T15:43:55.682Z,16.75
2022-12-18T15:46:25.381Z,18.95
2022-12-18T15:51:39.623Z,17.63
2022-12-18T15:54:14.001Z,18.23
2022-12-18T15:56:59.748Z,18.08
2022-12-18T15:59:27.529Z,20.02
2022-12-18T16:01:55.226Z,16.00
2022-12-18T16:04:24.619Z,17.48
2022-12-18T16:09:40.479Z,17.48
2022-12-18T16:12:08.725Z,18.45
2022-12-18T16:14:36.178Z,17.85
2022-12-18T16:17:05.301Z,18.15
2022-12-18T16:19:34.120Z,15.77
2022-12-18T16:22:01.744Z,15.88
2022-12-18T16:24:30.355Z,16.60
2022-12-18T16:27:02.945Z,15.18
2022-12-18T16:29:30.974Z,19.23
2022-12-18T16:32:04.050Z,18.13
2022-12-18T16:34:36.057Z,19.55
2022-12-18T16:37:06.032Z,20.33
2022-12-18T16:39:37.474Z,17.30
2022-12-18T16:42:13.601Z,17.40
2022-12-18T16:44:42.410Z,16.40
2022-12-18T16:47:11.379Z,15.87
2022-12-18T16:49:41.221Z,17.80
2022-12-18T16:52:09.071Z,15.55
2022-12-18T16:54:39.031Z,20.10
2022-12-18T16:57:06.623Z,20.20
2022-12-18T16:59:37.111Z,18.02
2022-12-18T17:02:07.255Z,17.63
2022-12-18T17:04:35.410Z,18.70
2022-12-18T17:07:04.646Z,15.65
2022-12-18T17:09:32.102Z,19.58
2022-12-18T17:12:04.016Z,20.15
2022-12-18T17:14:32.996Z,17.70
2022-12-18T17:17:20.427Z,18.17
2022-12-18T17:19:47.845Z,19.17
2022-12-18T17:22:15.297Z,17.80
2022-12-18T17:24:42.681Z,18.67
2022-12-18T17:27:09.978Z,17.55
2022-12-18T17:29:43.964Z,21.02
2022-12-18T17:32:14.471Z,18.45
2022-12-18T17:34:41.975Z,26.33
2022-12-18T17:37:09.625Z,18.90
2022-12-18T17:39:37.072Z,22.27
2022-12-18T17:42:05.307Z,19.80
2022-12-18T17:44:34.432Z,18.17
2022-12-18T17:47:02.069Z,19.30
2022-12-18T17:49:29.905Z,19.38
2022-12-18T17:51:57.235Z,18.70
2022-12-18T17:54:25.078Z,18.85
2022-12-18T17:56:52.447Z,20.73
2022-12-18T17:59:19.932Z,16.85
2022-12-18T18:01:47.412Z,19.20
2022-12-18T18:04:15.363Z,21.13
2022-12-18T18:06:42.846Z,18.92
2022-12-18T18:09:16.376Z,21.02
2022-12-18T18:12:04.415Z,22.20
2022-12-18T18:14:32.338Z,19.60
2022-12-18T18:17:02.839Z,17.75
2022-12-18T18:19:32.526Z,18.50
2022-12-18T18:21:59.958Z,17.58
2022-12-18T18:24:27.740Z,15.95
2022-12-18T18:27:07.976Z,19.70
2022-12-18T18:32:25.586Z,18.88
2022-12-18T18:34:52.896Z,17.50
2022-12-18T18:37:20.601Z,18.92
2022-12-18T18:39:47.980Z,18.90
2022-12-18T18:42:15.287Z,18.65
2022-12-18T18:44:48.575Z,24.65
2022-12-18T18:47:16.359Z,21.02
2022-12-18T18:49:43.751Z,18.30
2022-12-18T18:52:11.208Z,19.52
2022-12-18T18:54:44.329Z,19.45
2022-12-18T18:57:20.976Z,18.77
2022-12-18T18:59:49.156Z,20.48
2022-12-18T19:02:17.633Z,17.88
2022-12-18T19:04:46.179Z,20.50
2022-12-18T19:07:23.884Z,18.17
2022-12-18T19:09:57.501Z,19.52
2022-12-18T19:12:45.777Z,18.42
2022-12-18T19:15:25.960Z,18.25
2022-12-18T19:17:53.706Z,19.38
2022-12-18T19:20:57.002Z,21.65
2022-12-18T19:26:17.030Z,20.33
2022-12-18T19:28:50.759Z,22.95
2022-12-18T19:31:24.833Z,24.75
2022-12-18T19:33:53.701Z,26.05
2022-12-18T19:36:25.898Z,19.10
2022-12-18T19:38:56.635Z,23.50
2022-12-18T19:41:24.468Z,27.85
2022-12-18T19:43:53.313Z,23.60
2022-12-18T19:46:24.215Z,25.00
2022-12-18T19:48:51.716Z,24.45
2022-12-18T19:51:24.118Z,22.55
2022-12-18T19:53:57.795Z,20.08
2022-12-18T19:56:26.934Z,22.70
2022-12-18T19:58:57.089Z,20.83
2022-12-18T20:01:27.454Z,23.42
2022-12-18T20:03:59.005Z,20.45
2022-12-18T20:06:29.198Z,22.50
2022-12-18T20:09:01.196Z,20.58
2022-12-18T20:11:29.984Z,24.10
2022-12-18T20:13:58.172Z,20.77
2022-12-18T20:16:25.642Z,23.73
2022-12-18T20:21:25.890Z,24.05
2022-12-18T20:23:56.741Z,23.08
2022-12-18T20:26:25.033Z,26.27
2022-12-18T20:28:52.910Z,23.65
2022-12-18T20:31:20.546Z,25.42
2022-12-18T20:33:49.838Z,24.85
2022-12-18T20:36:21.350Z,21.50
2022-12-18T20:38:57.190Z,21.95
2022-12-18T20:41:31.065Z,22.20
2022-12-18T20:44:10.961Z,14.40
2022-12-18T20:46:50.477Z,21.30
2022-12-18T20:49:20.019Z,18.38
2022-12-18T20:51:50.439Z,20.20
2022-12-18T20:54:17.759Z,22.77
2022-12-18T20:56:45.160Z,22.25
2022-12-18T20:59:15.230Z,22.52
2022-12-18T21:01:48.479Z,21.73
2022-12-18T21:04:18.224Z,23.23
2022-12-18T21:06:54.095Z,22.52
2022-12-18T21:09:28.047Z,21.45
2022-12-18T21:12:19.557Z,24.33
2022-12-18T21:14:46.930Z,23.15
2022-12-18T21:17:16.014Z,17.17
2022-12-18T21:19:45.648Z,23.58
2022-12-18T21:22:13.848Z,23.38
2022-12-18T21:24:41.422Z,26.77
2022-12-18T21:27:13.004Z,25.58
2022-12-18T21:29:45.065Z,25.60
2022-12-18T21:32:13.906Z,22.67
2022-12-18T21:34:47.960Z,26.63
2022-12-18T21:37:15.983Z,26.40
2022-12-18T21:39:43.422Z,26.83
2022-12-18T21:42:30.984Z,24.63
2022-12-18T21:44:58.400Z,20.10
2022-12-18T21:47:25.719Z,23.85
2022-12-18T21:49:53.567Z,21.33
2022-12-18T21:52:27.848Z,25.30
2022-12-18T21:55:07.850Z,27.38
2022-12-18T21:57:36.843Z,27.10
2022-12-18T22:00:08.386Z,26.85
2022-12-18T22:02:44.633Z,25.00
2022-12-18T22:05:12.082Z,24.27
2022-12-18T22:07:39.381Z,29.77
2022-12-18T22:10:06.876Z,26.55
2022-12-18T22:12:43.970Z,27.35
2022-12-18T22:15:13.184Z,27.48
2022-12-18T22:17:49.910Z,27.52
2022-12-18T22:20:17.557Z,22.67
2022-12-18T22:22:51.783Z,25.10
2022-12-18T22:25:21.145Z,21.20
2022-12-18T22:28:08.459Z,21.10
2022-12-18T22:30:35.942Z,28.70
2022-12-18T22:33:03.877Z,27.88
2022-12-18T22:35:31.312Z,26.75
2022-12-18T22:38:01.629Z,27.35
2022-12-18T22:40:29.036Z,25.70
2022-12-18T22:42:56.558Z,26.38
2022-12-18T22:45:24.718Z,25.85
2022-12-18T22:47:52.123Z,28.58
2022-12-18T22:50:29.518Z,27.48
2022-12-18T22:52:56.997Z,28.42
2022-12-18T22:55:24.370Z,27.27
2022-12-18T22:57:52.098Z,26.80
2022-12-18T23:00:23.925Z,29.13
2022-12-18T23:03:00.368Z,29.30
2022-12-18T23:05:28.940Z,28.70
2022-12-18T23:07:57.854Z,25.50
2022-12-18T23:10:28.111Z,26.98
2022-12-18T23:12:55.583Z,25.20
2022-12-18T23:15:27.753Z,29.83
2022-12-18T23:17:55.898Z,26.42
2022-12-18T23:20:23.177Z,25.05
2022-12-18T23:22:55.133Z,26.70
2022-12-18T23:25:22.437Z,25.92
2022-12-18T23:27:49.798Z,31.20
2022-12-18T23:30:17.130Z,28.88
2022-12-18T23:32:44.461Z,28.83
2022-12-18T23:35:11.782Z,29.85
2022-12-18T23:37:58.635Z,28.42
2022-12-18T23:40:30.289Z,25.20
2022-12-18T23:43:58.798Z,29.77
2022-12-18T23:51:00.243Z,27.95
2022-12-18T23:57:00.347Z,28.90
2022-12-18T23:59:28.386Z,29.30
